createdAt,value
2022-08-30T00:00:05.462Z,21.10
2022-08-30T00:05:08.570Z,27.45
2022-08-30T00:10:11.385Z,24.13
2022-08-30T00:15:14.268Z,17.73
2022-08-30T00:20:21.868Z,19.35
2022-08-30T00:25:25.013Z,23.73
2022-08-30T00:30:27.341Z,23.40
2022-08-30T00:35:29.586Z,18.92
2022-08-30T00:40:31.714Z,21.40
2022-08-30T00:45:36.861Z,25.90
2022-08-30T00:50:50.445Z,22.55
2022-08-30T00:55:55.127Z,21.30
2022-08-30T01:01:00.983Z,23.77
2022-08-30T01:06:04.799Z,29.85
2022-08-30T01:11:08.120Z,21.52
2022-08-30T01:16:11.084Z,29.33
2022-08-30T01:21:34.447Z,21.95
2022-08-30T01:26:37.696Z,21.05
2022-08-30T01:31:40.156Z,22.85
2022-08-30T01:36:45.236Z,21.40
2022-08-30T01:41:47.525Z,27.08
2022-08-30T01:46:49.789Z,27.60
2022-08-30T01:52:00.924Z,30.92
2022-08-30T01:57:04.387Z,25.20
2022-08-30T02:02:07.238Z,22.45
2022-08-30T02:07:10.105Z,20.88
2022-08-30T02:12:12.384Z,23.25
2022-08-30T02:17:16.197Z,19.42
2022-08-30T02:22:18.433Z,23.80
2022-08-30T02:27:20.611Z,21.02
2022-08-30T02:32:22.829Z,21.88
2022-08-30T02:37:25.237Z,20.83
2022-08-30T02:42:27.334Z,25.60
2022-08-30T02:47:29.398Z,23.65
2022-08-30T02:52:31.845Z,22.83
2022-08-30T02:57:34.277Z,20.42
2022-08-30T03:02:36.378Z,24.67
2022-08-30T03:07:38.748Z,24.92
2022-08-30T03:12:42.130Z,23.83
2022-08-30T03:17:44.456Z,22.13
2022-08-30T03:22:46.680Z,27.33
2022-08-30T03:27:50.847Z,24.70
2022-08-30T03:32:53.251Z,25.15
2022-08-30T03:37:56.266Z,21.05
2022-08-30T03:42:58.707Z,21.45
2022-08-30T03:48:03.174Z,24.52
2022-08-30T03:53:05.524Z,23.38
2022-08-30T03:58:07.719Z,20.77
2022-08-30T04:03:09.993Z,25.05
2022-08-30T04:08:12.181Z,21.55
2022-08-30T04:13:18.654Z,21.65
2022-08-30T04:18:21.252Z,23.52
2022-08-30T04:23:23.377Z,21.73
2022-08-30T04:28:25.862Z,26.48
2022-08-30T04:33:28.608Z,21.25
2022-08-30T04:38:31.349Z,24.48
2022-08-30T04:43:34.381Z,20.35
2022-08-30T04:48:38.069Z,26.17
2022-08-30T04:53:42.482Z,20.90
2022-08-30T04:58:47.006Z,22.50
2022-08-30T05:03:50.470Z,20.10
2022-08-30T05:08:54.333Z,15.52
2022-08-30T05:13:56.447Z,16.92
2022-08-30T05:18:58.552Z,15.18
2022-08-30T05:24:01.477Z,19.55
2022-08-30T05:29:03.865Z,14.48
2022-08-30T05:34:06.248Z,19.50
2022-08-30T05:39:10.126Z,14.80
2022-08-30T05:44:12.656Z,12.13
2022-08-30T05:49:15.238Z,18.08
2022-08-30T05:54:17.399Z,10.00
2022-08-30T05:59:19.876Z,9.75
2022-08-30T06:04:22.084Z,13.13
2022-08-30T06:09:24.791Z,14.80
2022-08-30T06:14:27.102Z,12.43
2022-08-30T06:19:29.416Z,11.55
2022-08-30T06:24:55.989Z,11.82
2022-08-30T06:29:54.419Z,7.78
2022-08-30T06:34:56.627Z,9.55
2022-08-30T06:40:00.226Z,8.82
2022-08-30T06:45:11.039Z,9.57
2022-08-30T06:50:17.379Z,10.02
2022-08-30T06:55:20.137Z,9.73
2022-08-30T07:00:22.409Z,8.43
2022-08-30T07:05:24.718Z,10.73
2022-08-30T07:10:27.155Z,10.30
2022-08-30T07:15:29.389Z,9.02
2022-08-30T07:20:40.260Z,8.88
2022-08-30T07:25:43.176Z,8.32
2022-08-30T07:30:45.300Z,9.00
2022-08-30T07:35:47.410Z,12.57
2022-08-30T07:40:49.652Z,13.10
2022-08-30T07:45:51.925Z,11.40
2022-08-30T07:50:57.681Z,10.60
2022-08-30T07:56:02.139Z,8.20
2022-08-30T08:01:09.771Z,10.02
2022-08-30T08:06:14.985Z,11.02
2022-08-30T08:11:23.675Z,10.82
2022-08-30T08:16:29.264Z,11.23
2022-08-30T08:21:31.882Z,8.68
2022-08-30T08:26:36.494Z,10.00
2022-08-30T08:31:38.979Z,10.82
2022-08-30T08:36:41.604Z,6.95
2022-08-30T08:42:16.677Z,10.27
2022-08-30T08:47:35.709Z,10.98
2022-08-30T08:53:20.445Z,10.52
2022-08-30T08:58:35.152Z,13.43
2022-08-30T09:03:37.868Z,12.05
2022-08-30T09:08:40.134Z,9.90
2022-08-30T09:13:42.976Z,9.93
2022-08-30T09:18:51.358Z,14.63
2022-08-30T09:24:04.824Z,12.40
2022-08-30T09:29:17.695Z,11.02
2022-08-30T09:34:22.551Z,9.20
2022-08-30T09:39:37.596Z,9.82
2022-08-30T09:44:40.465Z,9.10
2022-08-30T09:49:44.961Z,6.32
2022-08-30T09:55:15.003Z,9.18
2022-08-30T10:00:23.598Z,8.60
2022-08-30T10:06:11.788Z,10.85
2022-08-30T10:11:21.359Z,10.18
2022-08-30T10:16:44.779Z,7.60
2022-08-30T10:21:47.016Z,9.45
2022-08-30T10:26:58.314Z,7.43
2022-08-30T10:32:13.105Z,16.13
2022-08-30T10:37:19.903Z,6.93
2022-08-30T10:42:37.960Z,11.75
2022-08-30T10:47:54.067Z,8.05
2022-08-30T10:53:02.547Z,10.55
2022-08-30T10:58:06.764Z,10.95
2022-08-30T11:03:46.820Z,10.65
2022-08-30T11:09:18.581Z,11.68
2022-08-30T11:14:25.572Z,9.05
2022-08-30T11:19:40.755Z,11.23
2022-08-30T11:25:01.910Z,8.82
2022-08-30T11:30:26.669Z,13.57
2022-08-30T11:35:55.868Z,12.13
2022-08-30T11:40:59.145Z,12.33
2022-08-30T11:46:15.550Z,16.08
2022-08-30T11:51:50.831Z,11.57
2022-08-30T11:57:17.729Z,11.88
2022-08-30T12:02:45.156Z,12.20
2022-08-30T12:08:01.096Z,12.32
2022-08-30T12:13:04.085Z,11.80
2022-08-30T12:18:28.414Z,13.07
2022-08-30T12:23:44.752Z,12.45
2022-08-30T12:28:49.760Z,13.23
2022-08-30T12:34:00.788Z,9.10
2022-08-30T12:39:30.992Z,8.90
2022-08-30T12:44:34.278Z,16.48
2022-08-30T12:49:38.233Z,17.83
2022-08-30T12:54:41.145Z,13.93
2022-08-30T12:59:58.482Z,11.07
2022-08-30T13:05:42.935Z,11.57
2022-08-30T13:11:08.098Z,12.82
2022-08-30T13:16:21.868Z,13.55
2022-08-30T13:21:26.662Z,15.63
2022-08-30T13:26:32.985Z,11.40
2022-08-30T13:31:37.217Z,13.60
2022-08-30T13:36:48.452Z,15.18
2022-08-30T13:41:51.708Z,13.23
2022-08-30T13:47:32.077Z,10.57
2022-08-30T13:52:25.841Z,8.90
2022-08-30T14:02:57.647Z,12.90
2022-08-30T14:08:03.231Z,16.40
2022-08-30T14:13:09.046Z,10.73
2022-08-30T14:18:15.847Z,13.68
2022-08-30T14:23:20.849Z,13.48
2022-08-30T14:28:23.739Z,19.88
2022-08-30T14:33:26.428Z,10.63
2022-08-30T14:38:28.689Z,13.43
2022-08-30T14:43:32.013Z,13.80
2022-08-30T14:48:34.345Z,12.15
2022-08-30T14:53:36.956Z,11.63
2022-08-30T14:58:39.126Z,11.35
2022-08-30T15:03:42.874Z,15.48
2022-08-30T15:08:47.765Z,12.10
2022-08-30T15:13:52.975Z,15.95
2022-08-30T15:18:58.310Z,10.85
2022-08-30T15:24:02.528Z,11.38
2022-08-30T15:29:04.888Z,11.73
2022-08-30T15:34:12.845Z,12.63
2022-08-30T15:39:16.163Z,15.63
2022-08-30T15:44:18.444Z,13.98
2022-08-30T15:49:23.385Z,14.70
2022-08-30T15:54:26.003Z,12.00
2022-08-30T15:59:30.353Z,12.23
2022-08-30T16:04:32.684Z,14.75
2022-08-30T16:09:36.859Z,14.38
2022-08-30T16:14:40.617Z,21.55
2022-08-30T16:19:43.734Z,17.98
2022-08-30T16:24:46.621Z,15.75
2022-08-30T16:29:50.173Z,15.90
2022-08-30T16:34:52.612Z,14.48
2022-08-30T16:39:55.190Z,18.88
2022-08-30T16:44:57.711Z,19.40
2022-08-30T16:50:00.835Z,15.07
2022-08-30T16:55:03.714Z,16.77
2022-08-30T17:00:12.996Z,18.08
2022-08-30T17:05:15.854Z,18.05
2022-08-30T17:10:23.098Z,22.27
2022-08-30T17:15:27.339Z,24.13
2022-08-30T17:20:34.139Z,24.35
2022-08-30T17:25:37.738Z,19.08
2022-08-30T17:30:40.311Z,15.85
2022-08-30T17:35:42.652Z,22.45
2022-08-30T17:40:47.061Z,19.05
2022-08-30T17:45:49.471Z,18.70
2022-08-30T17:50:58.133Z,21.02
2022-08-30T17:56:00.649Z,19.42
2022-08-30T18:01:11.587Z,17.33
2022-08-30T18:06:14.943Z,18.80
2022-08-30T18:11:19.127Z,16.10
2022-08-30T18:16:21.725Z,19.13
2022-08-30T18:21:28.863Z,20.13
2022-08-30T18:26:32.257Z,18.75
2022-08-30T18:31:34.521Z,18.75
2022-08-30T18:36:36.745Z,22.45
2022-08-30T18:41:42.953Z,22.00
2022-08-30T18:46:55.831Z,17.10
2022-08-30T18:51:59.409Z,17.85
2022-08-30T18:57:01.794Z,29.27
2022-08-30T19:02:05.942Z,20.48
2022-08-30T19:07:10.172Z,64.30
2022-08-30T19:12:14.826Z,47.17
2022-08-30T19:17:19.219Z,46.90
2022-08-30T19:22:27.445Z,38.88
2022-08-30T19:27:37.236Z,26.05
2022-08-30T19:32:40.531Z,18.00
2022-08-30T19:37:43.826Z,18.10
2022-08-30T19:42:47.040Z,16.35
2022-08-30T19:47:50.135Z,20.20
2022-08-30T19:52:54.678Z,14.35
2022-08-30T19:57:58.021Z,24.17
2022-08-30T20:03:01.625Z,15.30
2022-08-30T20:08:04.384Z,20.38
2022-08-30T20:13:06.690Z,21.60
2022-08-30T20:18:13.387Z,17.73
2022-08-30T20:23:19.699Z,19.38
2022-08-30T20:28:26.085Z,20.42
2022-08-30T20:33:28.278Z,16.80
2022-08-30T20:38:31.022Z,14.63
2022-08-30T20:43:33.282Z,16.77
2022-08-30T20:48:35.769Z,14.68
2022-08-30T20:53:38.748Z,21.35
2022-08-30T20:58:41.317Z,19.25
2022-08-30T21:03:45.038Z,19.38
2022-08-30T21:08:50.570Z,20.40
2022-08-30T21:13:52.728Z,19.08
2022-08-30T21:18:54.832Z,16.55
2022-08-30T21:24:00.306Z,19.15
2022-08-30T21:29:02.776Z,16.65
2022-08-30T21:34:05.979Z,13.98
2022-08-30T21:39:09.581Z,20.00
2022-08-30T21:44:18.793Z,18.02
2022-08-30T21:49:23.904Z,21.45
2022-08-30T21:54:28.320Z,16.70
2022-08-30T21:59:34.186Z,20.67
2022-08-30T22:04:36.332Z,17.20
2022-08-30T22:09:38.707Z,12.52
2022-08-30T22:14:41.395Z,20.58
2022-08-30T22:19:43.546Z,16.50
2022-08-30T22:24:45.824Z,18.75
2022-08-30T22:29:48.030Z,15.05
2022-08-30T22:34:51.301Z,18.85
2022-08-30T22:39:53.527Z,22.95
2022-08-30T22:44:55.662Z,18.83
2022-08-30T22:49:57.958Z,20.70
2022-08-30T22:55:01.138Z,16.83
2022-08-30T23:00:08.869Z,18.83
2022-08-30T23:05:13.169Z,23.40
2022-08-30T23:10:15.567Z,19.30
2022-08-30T23:15:17.999Z,22.58
2022-08-30T23:20:20.808Z,19.92
2022-08-30T23:25:44.474Z,18.08
2022-08-30T23:31:05.241Z,20.30
2022-08-30T23:36:31.746Z,18.38
2022-08-30T23:41:52.486Z,16.23
2022-08-30T23:47:13.238Z,18.60
2022-08-30T23:52:34.029Z,22.90
2022-08-30T23:57:54.712Z,19.88
